| Date | Time | Temp. (oF) | Dew Point (oF) | Rel. Hum. (%) | Press. (in.) | Wind Dir. | Wind Speed (mph) | Hourly Rainfall (in.) |
|
|---|---|---|---|---|---|---|---|---|---|
| 1 | 05/30 | 00:00 | 59 | 57 | 94 | 29.64 | SSW | 1 | 0.00 |
| 2 | 05/29 | 23:00 | 60 | 56 | 88 | 29.64 | S | 2 | 0.00 |
| 3 | 05/29 | 22:00 | 62 | 56 | 82 | 29.65 | SSE | 3 | 0.00 |
| 4 | 05/29 | 21:00 | 64 | 55 | 75 | 29.63 | S | 3 | 0.00 |
| 5 | 05/29 | 20:00 | 66 | 54 | 67 | 29.61 | SSW | 4 | 0.00 |
| 6 | 05/29 | 19:00 | 68 | 55 | 64 | 29.59 | S | 4 | 0.00 |
| 7 | 05/29 | 18:00 | 70 | 54 | 59 | 29.58 | SSW | 7 | 0.00 |
| 8 | 05/29 | 17:00 | 72 | 55 | 56 | 29.58 | SSW | 7 | 0.00 |
| 9 | 05/29 | 16:00 | 73 | 53 | 51 | 29.59 | SSE | 4 | 0.00 |
| 10 | 05/29 | 15:00 | 73 | 53 | 50 | 29.61 | W | 3 | 0.00 |
| 11 | 05/29 | 14:00 | 73 | 54 | 52 | 29.63 | SSW | 3 | 0.00 |
| 12 | 05/29 | 13:00 | 71 | 53 | 55 | 29.65 | NNW | 0 | 0.00 |
| 13 | 05/29 | 12:00 | 69 | 54 | 60 | 29.67 | S | 6 | 0.00 |
| 14 | 05/29 | 11:00 | 66 | 55 | 68 | 29.69 | SSW | 3 | 0.00 |
| 15 | 05/29 | 10:00 | 64 | 56 | 76 | 29.70 | NW | 2 | 0.00 |
| 16 | 05/29 | 09:00 | 60 | 58 | 95 | 29.71 | SSE | 1 | 0.00 |
| 17 | 05/29 | 08:00 | 53 | 53 | 100 | 29.71 | SE | 0 | 0.00 |
| 18 | 05/29 | 07:00 | 50 | 50 | 100 | 29.71 | NNE | 1 | 0.00 |
| 19 | 05/29 | 06:00 | 50 | 50 | 100 | 29.71 | WSW | 0 | 0.00 |
| 20 | 05/29 | 05:00 | 50 | 50 | 100 | 29.71 | WSW | 0 | 0.00 |
| 21 | 05/29 | 04:00 | 52 | 51 | 100 | 29.72 | SW | 0 | 0.00 |
| 22 | 05/29 | 03:00 | 53 | 52 | 99 | 29.72 | WSW | 2 | 0.00 |
| 23 | 05/29 | 02:00 | 54 | 53 | 99 | 29.73 | SW | 0 | 0.00 |
| 24 | 05/29 | 01:00 | 54 | 53 | 99 | 29.75 | SW | 1 | 0.00 |